sensor_id;sensor_type;location;lat;lon;timestamp;P1;durP1;ratioP1;P2;durP2;ratioP2
18265;SDS011;9259;48.194;16.322;2023-12-20T00:01:56;67.23;;;26.27;;
18265;SDS011;9259;48.194;16.322;2023-12-20T00:04:25;58.33;;;25.47;;
18265;SDS011;9259;48.194;16.322;2023-12-20T00:06:53;58.37;;;25.23;;
18265;SDS011;9259;48.194;16.322;2023-12-20T00:09:21;55.60;;;25.67;;
18265;SDS011;9259;48.194;16.322;2023-12-20T00:11:49;59.67;;;26.57;;
18265;SDS011;9259;48.194;16.322;2023-12-20T00:14:17;54.70;;;25.23;;
18265;SDS011;9259;48.194;16.322;2023-12-20T00:16:45;58.87;;;24.37;;
18265;SDS011;9259;48.194;16.322;2023-12-20T00:19:12;57.30;;;25.20;;
18265;SDS011;9259;48.194;16.322;2023-12-20T00:25:02;57.77;;;24.90;;
18265;SDS011;9259;48.194;16.322;2023-12-20T00:30:42;54.77;;;23.47;;
18265;SDS011;9259;48.194;16.322;2023-12-20T00:33:09;52.23;;;23.13;;
18265;SDS011;9259;48.194;16.322;2023-12-20T00:35:37;52.00;;;23.40;;
18265;SDS011;9259;48.194;16.322;2023-12-20T00:38:06;52.73;;;23.13;;
18265;SDS011;9259;48.194;16.322;2023-12-20T00:40:35;53.97;;;23.53;;
18265;SDS011;9259;48.194;16.322;2023-12-20T00:43:03;57.13;;;24.77;;
18265;SDS011;9259;48.194;16.322;2023-12-20T00:45:31;55.67;;;25.10;;
18265;SDS011;9259;48.194;16.322;2023-12-20T00:47:58;53.67;;;23.80;;
18265;SDS011;9259;48.194;16.322;2023-12-20T00:50:26;58.93;;;26.07;;
18265;SDS011;9259;48.194;16.322;2023-12-20T00:52:54;61.37;;;25.90;;
18265;SDS011;9259;48.194;16.322;2023-12-20T00:55:23;57.97;;;26.13;;
18265;SDS011;9259;48.194;16.322;2023-12-20T00:57:51;51.07;;;23.50;;
18265;SDS011;9259;48.194;16.322;2023-12-20T01:00:19;54.93;;;25.23;;
18265;SDS011;9259;48.194;16.322;2023-12-20T01:02:47;57.10;;;24.83;;
18265;SDS011;9259;48.194;16.322;2023-12-20T01:05:17;54.50;;;23.53;;
18265;SDS011;9259;48.194;16.322;2023-12-20T01:07:48;50.90;;;23.83;;
18265;SDS011;9259;48.194;16.322;2023-12-20T01:10:16;49.33;;;23.80;;
18265;SDS011;9259;48.194;16.322;2023-12-20T01:12:46;57.67;;;23.70;;
18265;SDS011;9259;48.194;16.322;2023-12-20T01:15:13;52.17;;;23.67;;
18265;SDS011;9259;48.194;16.322;2023-12-20T01:17:41;54.93;;;24.03;;
18265;SDS011;9259;48.194;16.322;2023-12-20T01:20:09;56.50;;;25.13;;
18265;SDS011;9259;48.194;16.322;2023-12-20T01:22:37;49.73;;;23.27;;
18265;SDS011;9259;48.194;16.322;2023-12-20T01:25:06;49.50;;;23.00;;
18265;SDS011;9259;48.194;16.322;2023-12-20T01:27:34;51.73;;;22.43;;
18265;SDS011;9259;48.194;16.322;2023-12-20T01:30:04;49.47;;;23.83;;
18265;SDS011;9259;48.194;16.322;2023-12-20T01:32:33;55.70;;;23.97;;
18265;SDS011;9259;48.194;16.322;2023-12-20T01:35:01;53.30;;;23.67;;
18265;SDS011;9259;48.194;16.322;2023-12-20T01:37:29;49.93;;;23.00;;
18265;SDS011;9259;48.194;16.322;2023-12-20T01:39:57;48.53;;;22.07;;
18265;SDS011;9259;48.194;16.322;2023-12-20T01:42:25;46.80;;;22.23;;
18265;SDS011;9259;48.194;16.322;2023-12-20T01:44:53;52.50;;;23.47;;
18265;SDS011;9259;48.194;16.322;2023-12-20T01:47:22;47.03;;;21.53;;
18265;SDS011;9259;48.194;16.322;2023-12-20T01:49:50;48.63;;;22.00;;
18265;SDS011;9259;48.194;16.322;2023-12-20T01:52:18;44.20;;;21.73;;
18265;SDS011;9259;48.194;16.322;2023-12-20T01:54:46;47.70;;;22.57;;
18265;SDS011;9259;48.194;16.322;2023-12-20T01:57:15;45.97;;;21.07;;
18265;SDS011;9259;48.194;16.322;2023-12-20T01:59:42;52.13;;;22.53;;
18265;SDS011;9259;48.194;16.322;2023-12-20T02:02:11;46.57;;;20.80;;
18265;SDS011;9259;48.194;16.322;2023-12-20T02:04:40;50.53;;;21.70;;
18265;SDS011;9259;48.194;16.322;2023-12-20T02:07:09;43.23;;;20.77;;
18265;SDS011;9259;48.194;16.322;2023-12-20T02:09:38;43.97;;;20.53;;
18265;SDS011;9259;48.194;16.322;2023-12-20T02:12:07;49.57;;;20.83;;
18265;SDS011;9259;48.194;16.322;2023-12-20T02:14:35;42.40;;;20.13;;
18265;SDS011;9259;48.194;16.322;2023-12-20T02:17:03;51.87;;;21.63;;
18265;SDS011;9259;48.194;16.322;2023-12-20T02:19:31;47.30;;;21.47;;
18265;SDS011;9259;48.194;16.322;2023-12-20T02:22:07;49.60;;;21.77;;
18265;SDS011;9259;48.194;16.322;2023-12-20T02:24:36;42.50;;;20.73;;
18265;SDS011;9259;48.194;16.322;2023-12-20T02:27:04;44.93;;;19.60;;
18265;SDS011;9259;48.194;16.322;2023-12-20T02:29:34;42.90;;;19.50;;
18265;SDS011;9259;48.194;16.322;2023-12-20T02:32:02;44.17;;;19.97;;
18265;SDS011;9259;48.194;16.322;2023-12-20T02:34:30;40.10;;;17.93;;
18265;SDS011;9259;48.194;16.322;2023-12-20T02:36:58;41.40;;;18.10;;
18265;SDS011;9259;48.194;16.322;2023-12-20T02:39:27;37.37;;;17.17;;
18265;SDS011;9259;48.194;16.322;2023-12-20T02:41:55;36.00;;;17.57;;
18265;SDS011;9259;48.194;16.322;2023-12-20T02:44:23;36.33;;;16.87;;
18265;SDS011;9259;48.194;16.322;2023-12-20T02:46:51;37.10;;;15.93;;
18265;SDS011;9259;48.194;16.322;2023-12-20T02:49:19;29.17;;;13.23;;
18265;SDS011;9259;48.194;16.322;2023-12-20T02:51:47;26.53;;;11.67;;
18265;SDS011;9259;48.194;16.322;2023-12-20T02:54:15;11.97;;;5.70;;
18265;SDS011;9259;48.194;16.322;2023-12-20T02:56:44;12.20;;;4.97;;
18265;SDS011;9259;48.194;16.322;2023-12-20T02:59:12;7.43;;;3.50;;
18265;SDS011;9259;48.194;16.322;2023-12-20T03:01:41;7.30;;;3.17;;
18265;SDS011;9259;48.194;16.322;2023-12-20T03:04:10;20.37;;;9.80;;
18265;SDS011;9259;48.194;16.322;2023-12-20T03:06:38;18.70;;;9.17;;
18265;SDS011;9259;48.194;16.322;2023-12-20T03:09:06;23.63;;;10.73;;
18265;SDS011;9259;48.194;16.322;2023-12-20T03:11:34;20.97;;;10.77;;
18265;SDS011;9259;48.194;16.322;2023-12-20T03:14:03;21.07;;;10.63;;
18265;SDS011;9259;48.194;16.322;2023-12-20T03:16:31;23.07;;;11.40;;
18265;SDS011;9259;48.194;16.322;2023-12-20T03:18:59;21.20;;;11.07;;
18265;SDS011;9259;48.194;16.322;2023-12-20T03:21:27;23.70;;;10.43;;
18265;SDS011;9259;48.194;16.322;2023-12-20T03:23:55;28.67;;;12.47;;
18265;SDS011;9259;48.194;16.322;2023-12-20T03:26:23;25.20;;;12.23;;
18265;SDS011;9259;48.194;16.322;2023-12-20T03:28:50;29.87;;;12.67;;
18265;SDS011;9259;48.194;16.322;2023-12-20T03:31:20;24.60;;;12.30;;
18265;SDS011;9259;48.194;16.322;2023-12-20T03:33:47;27.10;;;12.47;;
18265;SDS011;9259;48.194;16.322;2023-12-20T03:36:16;23.33;;;11.17;;
18265;SDS011;9259;48.194;16.322;2023-12-20T03:38:44;22.07;;;11.57;;
18265;SDS011;9259;48.194;16.322;2023-12-20T03:41:12;23.47;;;11.70;;
18265;SDS011;9259;48.194;16.322;2023-12-20T03:43:41;22.00;;;10.70;;
18265;SDS011;9259;48.194;16.322;2023-12-20T03:46:08;24.93;;;12.97;;
18265;SDS011;9259;48.194;16.322;2023-12-20T03:48:38;25.53;;;12.07;;
18265;SDS011;9259;48.194;16.322;2023-12-20T03:51:05;23.83;;;12.17;;
18265;SDS011;9259;48.194;16.322;2023-12-20T03:53:33;20.23;;;10.50;;
18265;SDS011;9259;48.194;16.322;2023-12-20T03:56:01;18.60;;;9.30;;
18265;SDS011;9259;48.194;16.322;2023-12-20T03:58:29;18.50;;;9.10;;
18265;SDS011;9259;48.194;16.322;2023-12-20T04:00:57;18.07;;;8.97;;
18265;SDS011;9259;48.194;16.322;2023-12-20T04:03:25;20.10;;;10.60;;
18265;SDS011;9259;48.194;16.322;2023-12-20T04:05:54;21.53;;;10.60;;
18265;SDS011;9259;48.194;16.322;2023-12-20T04:08:22;19.40;;;10.43;;
18265;SDS011;9259;48.194;16.322;2023-12-20T04:10:50;21.37;;;10.77;;
18265;SDS011;9259;48.194;16.322;2023-12-20T04:13:17;25.43;;;11.80;;
18265;SDS011;9259;48.194;16.322;2023-12-20T04:15:45;22.03;;;11.20;;
18265;SDS011;9259;48.194;16.322;2023-12-20T04:18:13;26.70;;;12.17;;
18265;SDS011;9259;48.194;16.322;2023-12-20T04:20:41;24.87;;;12.90;;
18265;SDS011;9259;48.194;16.322;2023-12-20T04:23:10;22.37;;;11.73;;
18265;SDS011;9259;48.194;16.322;2023-12-20T04:25:38;25.93;;;13.00;;
18265;SDS011;9259;48.194;16.322;2023-12-20T04:28:06;22.73;;;11.83;;
18265;SDS011;9259;48.194;16.322;2023-12-20T04:30:34;21.67;;;11.30;;
18265;SDS011;9259;48.194;16.322;2023-12-20T04:33:02;23.13;;;11.50;;
18265;SDS011;9259;48.194;16.322;2023-12-20T04:35:30;21.93;;;11.40;;
18265;SDS011;9259;48.194;16.322;2023-12-20T04:37:58;22.83;;;11.03;;
18265;SDS011;9259;48.194;16.322;2023-12-20T04:40:27;23.33;;;10.70;;
18265;SDS011;9259;48.194;16.322;2023-12-20T04:42:55;21.27;;;11.57;;
18265;SDS011;9259;48.194;16.322;2023-12-20T04:45:22;20.63;;;11.27;;
18265;SDS011;9259;48.194;16.322;2023-12-20T04:47:50;17.23;;;8.20;;
18265;SDS011;9259;48.194;16.322;2023-12-20T04:50:19;12.83;;;6.97;;
18265;SDS011;9259;48.194;16.322;2023-12-20T04:52:47;15.57;;;5.70;;
18265;SDS011;9259;48.194;16.322;2023-12-20T04:55:15;11.23;;;4.97;;
18265;SDS011;9259;48.194;16.322;2023-12-20T04:57:44;9.07;;;4.60;;
18265;SDS011;9259;48.194;16.322;2023-12-20T05:00:12;6.90;;;3.80;;
18265;SDS011;9259;48.194;16.322;2023-12-20T05:02:41;10.67;;;4.30;;
18265;SDS011;9259;48.194;16.322;2023-12-20T05:05:09;10.67;;;3.60;;
18265;SDS011;9259;48.194;16.322;2023-12-20T05:07:37;4.63;;;2.37;;
18265;SDS011;9259;48.194;16.322;2023-12-20T05:10:05;8.03;;;3.43;;
18265;SDS011;9259;48.194;16.322;2023-12-20T05:12:34;5.20;;;2.20;;
18265;SDS011;9259;48.194;16.322;2023-12-20T05:15:04;6.90;;;2.80;;
18265;SDS011;9259;48.194;16.322;2023-12-20T05:17:34;6.63;;;2.43;;
18265;SDS011;9259;48.194;16.322;2023-12-20T05:20:02;4.60;;;2.33;;
18265;SDS011;9259;48.194;16.322;2023-12-20T05:22:30;6.83;;;3.00;;
18265;SDS011;9259;48.194;16.322;2023-12-20T05:24:59;5.63;;;2.73;;
18265;SDS011;9259;48.194;16.322;2023-12-20T05:27:26;5.77;;;2.50;;
18265;SDS011;9259;48.194;16.322;2023-12-20T05:29:54;5.63;;;2.43;;
18265;SDS011;9259;48.194;16.322;2023-12-20T05:32:24;5.23;;;2.90;;
18265;SDS011;9259;48.194;16.322;2023-12-20T05:34:52;7.00;;;2.60;;
18265;SDS011;9259;48.194;16.322;2023-12-20T05:37:20;4.30;;;2.20;;
18265;SDS011;9259;48.194;16.322;2023-12-20T05:39:48;7.43;;;2.70;;
18265;SDS011;9259;48.194;16.322;2023-12-20T05:42:16;4.77;;;2.63;;
18265;SDS011;9259;48.194;16.322;2023-12-20T05:44:44;6.47;;;2.50;;
18265;SDS011;9259;48.194;16.322;2023-12-20T05:47:12;4.77;;;2.50;;
18265;SDS011;9259;48.194;16.322;2023-12-20T05:49:41;8.57;;;3.00;;
18265;SDS011;9259;48.194;16.322;2023-12-20T05:52:10;6.50;;;2.67;;
18265;SDS011;9259;48.194;16.322;2023-12-20T05:54:38;4.73;;;2.50;;
18265;SDS011;9259;48.194;16.322;2023-12-20T05:57:06;5.40;;;2.30;;
18265;SDS011;9259;48.194;16.322;2023-12-20T05:59:34;7.03;;;2.40;;
18265;SDS011;9259;48.194;16.322;2023-12-20T06:02:02;5.47;;;2.37;;
18265;SDS011;9259;48.194;16.322;2023-12-20T06:04:31;6.03;;;2.70;;
18265;SDS011;9259;48.194;16.322;2023-12-20T06:07:00;8.87;;;2.77;;
18265;SDS011;9259;48.194;16.322;2023-12-20T06:09:28;5.70;;;2.37;;
18265;SDS011;9259;48.194;16.322;2023-12-20T06:11:56;5.00;;;2.60;;
18265;SDS011;9259;48.194;16.322;2023-12-20T06:14:23;7.17;;;2.60;;
18265;SDS011;9259;48.194;16.322;2023-12-20T06:16:51;5.63;;;2.10;;
18265;SDS011;9259;48.194;16.322;2023-12-20T06:19:19;5.97;;;2.40;;
18265;SDS011;9259;48.194;16.322;2023-12-20T06:21:47;4.60;;;1.90;;
18265;SDS011;9259;48.194;16.322;2023-12-20T06:24:16;5.20;;;2.13;;
18265;SDS011;9259;48.194;16.322;2023-12-20T06:26:44;7.93;;;2.60;;
18265;SDS011;9259;48.194;16.322;2023-12-20T06:29:12;6.00;;;2.03;;
18265;SDS011;9259;48.194;16.322;2023-12-20T06:31:40;4.63;;;2.20;;
18265;SDS011;9259;48.194;16.322;2023-12-20T06:34:07;4.53;;;1.93;;
18265;SDS011;9259;48.194;16.322;2023-12-20T06:36:36;7.07;;;2.47;;
18265;SDS011;9259;48.194;16.322;2023-12-20T06:39:04;3.63;;;2.10;;
18265;SDS011;9259;48.194;16.322;2023-12-20T06:41:33;6.40;;;2.20;;
18265;SDS011;9259;48.194;16.322;2023-12-20T06:44:01;5.17;;;2.47;;
18265;SDS011;9259;48.194;16.322;2023-12-20T06:46:29;10.53;;;2.60;;
18265;SDS011;9259;48.194;16.322;2023-12-20T06:48:57;4.73;;;1.93;;
18265;SDS011;9259;48.194;16.322;2023-12-20T06:51:25;3.77;;;2.00;;
18265;SDS011;9259;48.194;16.322;2023-12-20T06:53:52;5.67;;;1.93;;
18265;SDS011;9259;48.194;16.322;2023-12-20T06:56:20;3.93;;;1.93;;
18265;SDS011;9259;48.194;16.322;2023-12-20T06:58:50;3.37;;;1.80;;
18265;SDS011;9259;48.194;16.322;2023-12-20T07:01:17;4.27;;;2.30;;
18265;SDS011;9259;48.194;16.322;2023-12-20T07:03:45;6.20;;;2.50;;
18265;SDS011;9259;48.194;16.322;2023-12-20T07:06:13;5.83;;;2.13;;
18265;SDS011;9259;48.194;16.322;2023-12-20T07:08:42;4.83;;;2.20;;
18265;SDS011;9259;48.194;16.322;2023-12-20T07:11:10;4.00;;;2.10;;
18265;SDS011;9259;48.194;16.322;2023-12-20T07:13:38;5.00;;;2.70;;
18265;SDS011;9259;48.194;16.322;2023-12-20T07:16:07;4.27;;;2.07;;
18265;SDS011;9259;48.194;16.322;2023-12-20T07:18:35;4.40;;;2.07;;
18265;SDS011;9259;48.194;16.322;2023-12-20T07:21:03;6.13;;;2.40;;
18265;SDS011;9259;48.194;16.322;2023-12-20T07:23:33;10.00;;;2.43;;
18265;SDS011;9259;48.194;16.322;2023-12-20T07:26:01;6.33;;;2.20;;
18265;SDS011;9259;48.194;16.322;2023-12-20T07:28:30;6.20;;;2.67;;
18265;SDS011;9259;48.194;16.322;2023-12-20T07:30:58;5.83;;;2.70;;
18265;SDS011;9259;48.194;16.322;2023-12-20T07:33:27;5.63;;;2.60;;
18265;SDS011;9259;48.194;16.322;2023-12-20T07:35:55;7.57;;;2.77;;
18265;SDS011;9259;48.194;16.322;2023-12-20T07:38:22;8.53;;;2.77;;
18265;SDS011;9259;48.194;16.322;2023-12-20T07:40:51;6.77;;;3.00;;
18265;SDS011;9259;48.194;16.322;2023-12-20T07:43:18;7.13;;;2.60;;
18265;SDS011;9259;48.194;16.322;2023-12-20T07:45:47;4.83;;;2.50;;
18265;SDS011;9259;48.194;16.322;2023-12-20T07:48:15;4.23;;;2.23;;
18265;SDS011;9259;48.194;16.322;2023-12-20T07:50:44;9.50;;;2.90;;
18265;SDS011;9259;48.194;16.322;2023-12-20T07:53:12;9.63;;;2.87;;
18265;SDS011;9259;48.194;16.322;2023-12-20T07:55:40;8.73;;;2.90;;
18265;SDS011;9259;48.194;16.322;2023-12-20T07:58:08;8.57;;;3.13;;
18265;SDS011;9259;48.194;16.322;2023-12-20T08:00:36;7.20;;;2.80;;
18265;SDS011;9259;48.194;16.322;2023-12-20T08:03:04;5.47;;;2.60;;
18265;SDS011;9259;48.194;16.322;2023-12-20T08:05:32;6.10;;;2.93;;
18265;SDS011;9259;48.194;16.322;2023-12-20T08:08:02;6.37;;;3.13;;
18265;SDS011;9259;48.194;16.322;2023-12-20T08:10:30;5.97;;;2.80;;
18265;SDS011;9259;48.194;16.322;2023-12-20T08:12:58;12.20;;;3.63;;
18265;SDS011;9259;48.194;16.322;2023-12-20T08:15:26;7.47;;;2.77;;
18265;SDS011;9259;48.194;16.322;2023-12-20T08:17:54;8.03;;;3.20;;
18265;SDS011;9259;48.194;16.322;2023-12-20T08:20:22;4.73;;;2.50;;
18265;SDS011;9259;48.194;16.322;2023-12-20T08:22:49;5.10;;;2.40;;
18265;SDS011;9259;48.194;16.322;2023-12-20T08:25:19;9.70;;;3.40;;
18265;SDS011;9259;48.194;16.322;2023-12-20T08:27:46;4.63;;;2.33;;
18265;SDS011;9259;48.194;16.322;2023-12-20T08:30:14;7.87;;;2.67;;
18265;SDS011;9259;48.194;16.322;2023-12-20T08:32:46;6.43;;;3.23;;
18265;SDS011;9259;48.194;16.322;2023-12-20T08:35:14;5.70;;;2.83;;
18265;SDS011;9259;48.194;16.322;2023-12-20T08:37:42;6.03;;;2.97;;
18265;SDS011;9259;48.194;16.322;2023-12-20T08:40:10;6.80;;;3.10;;
18265;SDS011;9259;48.194;16.322;2023-12-20T08:42:39;4.93;;;2.70;;
18265;SDS011;9259;48.194;16.322;2023-12-20T08:45:07;6.67;;;2.90;;
18265;SDS011;9259;48.194;16.322;2023-12-20T08:47:36;6.07;;;2.37;;
18265;SDS011;9259;48.194;16.322;2023-12-20T08:50:04;9.20;;;3.00;;
18265;SDS011;9259;48.194;16.322;2023-12-20T08:52:33;5.50;;;2.53;;
18265;SDS011;9259;48.194;16.322;2023-12-20T08:55:01;6.37;;;3.10;;
18265;SDS011;9259;48.194;16.322;2023-12-20T08:57:29;6.53;;;2.87;;
18265;SDS011;9259;48.194;16.322;2023-12-20T08:59:59;5.40;;;2.63;;
18265;SDS011;9259;48.194;16.322;2023-12-20T09:02:26;6.47;;;2.63;;
18265;SDS011;9259;48.194;16.322;2023-12-20T09:04:55;5.63;;;2.37;;
18265;SDS011;9259;48.194;16.322;2023-12-20T09:07:23;8.33;;;2.93;;
18265;SDS011;9259;48.194;16.322;2023-12-20T09:09:52;7.57;;;2.43;;
18265;SDS011;9259;48.194;16.322;2023-12-20T09:12:20;4.03;;;2.27;;
18265;SDS011;9259;48.194;16.322;2023-12-20T09:14:48;5.20;;;2.57;;
18265;SDS011;9259;48.194;16.322;2023-12-20T09:17:19;4.87;;;2.50;;
18265;SDS011;9259;48.194;16.322;2023-12-20T09:19:48;5.60;;;2.47;;
18265;SDS011;9259;48.194;16.322;2023-12-20T09:22:18;4.40;;;2.43;;
18265;SDS011;9259;48.194;16.322;2023-12-20T09:24:46;7.53;;;2.17;;
18265;SDS011;9259;48.194;16.322;2023-12-20T09:27:14;4.33;;;1.70;;
18265;SDS011;9259;48.194;16.322;2023-12-20T09:29:41;6.53;;;2.13;;
18265;SDS011;9259;48.194;16.322;2023-12-20T09:32:09;7.20;;;1.73;;
18265;SDS011;9259;48.194;16.322;2023-12-20T09:34:38;3.03;;;1.60;;
18265;SDS011;9259;48.194;16.322;2023-12-20T09:37:07;3.40;;;1.63;;
18265;SDS011;9259;48.194;16.322;2023-12-20T09:39:35;3.53;;;1.43;;
18265;SDS011;9259;48.194;16.322;2023-12-20T09:42:03;4.27;;;1.70;;
18265;SDS011;9259;48.194;16.322;2023-12-20T09:44:33;4.77;;;1.47;;
18265;SDS011;9259;48.194;16.322;2023-12-20T09:47:02;3.17;;;1.40;;
18265;SDS011;9259;48.194;16.322;2023-12-20T09:49:32;3.33;;;1.43;;
18265;SDS011;9259;48.194;16.322;2023-12-20T09:52:01;3.67;;;1.37;;
18265;SDS011;9259;48.194;16.322;2023-12-20T09:54:34;2.83;;;1.27;;
18265;SDS011;9259;48.194;16.322;2023-12-20T09:57:02;3.23;;;1.43;;
18265;SDS011;9259;48.194;16.322;2023-12-20T09:59:31;5.00;;;1.77;;
18265;SDS011;9259;48.194;16.322;2023-12-20T10:01:59;2.67;;;1.70;;
18265;SDS011;9259;48.194;16.322;2023-12-20T10:04:30;5.00;;;2.30;;
18265;SDS011;9259;48.194;16.322;2023-12-20T10:07:03;4.00;;;2.23;;
18265;SDS011;9259;48.194;16.322;2023-12-20T10:09:31;2.77;;;1.97;;
18265;SDS011;9259;48.194;16.322;2023-12-20T10:12:00;3.70;;;2.30;;
18265;SDS011;9259;48.194;16.322;2023-12-20T10:14:28;5.23;;;2.23;;
18265;SDS011;9259;48.194;16.322;2023-12-20T10:17:01;4.30;;;2.20;;
18265;SDS011;9259;48.194;16.322;2023-12-20T10:19:30;4.47;;;2.17;;
18265;SDS011;9259;48.194;16.322;2023-12-20T10:21:59;4.00;;;1.97;;
18265;SDS011;9259;48.194;16.322;2023-12-20T10:24:29;3.83;;;1.97;;
18265;SDS011;9259;48.194;16.322;2023-12-20T10:27:01;4.27;;;2.00;;
18265;SDS011;9259;48.194;16.322;2023-12-20T10:29:31;4.30;;;2.30;;
18265;SDS011;9259;48.194;16.322;2023-12-20T10:32:05;4.10;;;2.17;;
18265;SDS011;9259;48.194;16.322;2023-12-20T10:34:50;3.93;;;1.77;;
18265;SDS011;9259;48.194;16.322;2023-12-20T10:37:18;2.87;;;1.70;;
18265;SDS011;9259;48.194;16.322;2023-12-20T10:39:49;3.33;;;1.50;;
18265;SDS011;9259;48.194;16.322;2023-12-20T10:42:21;4.30;;;1.83;;
18265;SDS011;9259;48.194;16.322;2023-12-20T10:44:49;4.17;;;2.10;;
18265;SDS011;9259;48.194;16.322;2023-12-20T10:47:19;4.60;;;2.03;;
18265;SDS011;9259;48.194;16.322;2023-12-20T10:49:47;13.20;;;4.03;;
18265;SDS011;9259;48.194;16.322;2023-12-20T10:52:16;3.67;;;1.80;;
18265;SDS011;9259;48.194;16.322;2023-12-20T10:54:44;2.70;;;1.70;;
18265;SDS011;9259;48.194;16.322;2023-12-20T10:57:14;3.10;;;1.87;;
18265;SDS011;9259;48.194;16.322;2023-12-20T10:59:45;5.63;;;2.13;;
18265;SDS011;9259;48.194;16.322;2023-12-20T11:02:16;3.63;;;1.90;;
18265;SDS011;9259;48.194;16.322;2023-12-20T11:04:44;3.77;;;1.80;;
18265;SDS011;9259;48.194;16.322;2023-12-20T11:07:21;2.80;;;1.80;;
18265;SDS011;9259;48.194;16.322;2023-12-20T11:09:57;5.97;;;2.00;;
18265;SDS011;9259;48.194;16.322;2023-12-20T11:12:35;3.13;;;1.80;;
18265;SDS011;9259;48.194;16.322;2023-12-20T11:15:08;3.13;;;1.80;;
18265;SDS011;9259;48.194;16.322;2023-12-20T11:17:38;3.27;;;1.93;;
18265;SDS011;9259;48.194;16.322;2023-12-20T11:20:07;3.67;;;1.60;;
18265;SDS011;9259;48.194;16.322;2023-12-20T11:22:39;2.43;;;1.60;;
18265;SDS011;9259;48.194;16.322;2023-12-20T11:25:20;3.20;;;2.10;;
18265;SDS011;9259;48.194;16.322;2023-12-20T11:30:42;3.33;;;1.70;;
18265;SDS011;9259;48.194;16.322;2023-12-20T11:33:14;3.63;;;1.57;;
18265;SDS011;9259;48.194;16.322;2023-12-20T11:35:42;3.30;;;1.40;;
18265;SDS011;9259;48.194;16.322;2023-12-20T11:38:13;2.53;;;1.53;;
18265;SDS011;9259;48.194;16.322;2023-12-20T11:40:41;1.87;;;1.30;;
18265;SDS011;9259;48.194;16.322;2023-12-20T11:43:11;2.80;;;1.30;;
18265;SDS011;9259;48.194;16.322;2023-12-20T11:45:56;2.73;;;1.33;;
18265;SDS011;9259;48.194;16.322;2023-12-20T11:48:31;3.10;;;1.50;;
18265;SDS011;9259;48.194;16.322;2023-12-20T11:51:00;4.00;;;1.57;;
18265;SDS011;9259;48.194;16.322;2023-12-20T11:53:29;2.53;;;1.20;;
18265;SDS011;9259;48.194;16.322;2023-12-20T11:55:57;4.90;;;1.50;;
18265;SDS011;9259;48.194;16.322;2023-12-20T11:58:27;2.53;;;1.50;;
18265;SDS011;9259;48.194;16.322;2023-12-20T12:00:55;2.50;;;1.60;;
18265;SDS011;9259;48.194;16.322;2023-12-20T12:03:23;2.13;;;1.17;;
18265;SDS011;9259;48.194;16.322;2023-12-20T12:05:51;4.37;;;1.23;;
18265;SDS011;9259;48.194;16.322;2023-12-20T12:08:18;1.50;;;1.00;;
18265;SDS011;9259;48.194;16.322;2023-12-20T12:10:46;2.03;;;1.00;;
18265;SDS011;9259;48.194;16.322;2023-12-20T12:13:14;2.00;;;1.10;;
18265;SDS011;9259;48.194;16.322;2023-12-20T12:15:44;1.57;;;0.90;;
18265;SDS011;9259;48.194;16.322;2023-12-20T12:18:15;1.50;;;0.90;;
18265;SDS011;9259;48.194;16.322;2023-12-20T12:20:43;1.77;;;1.00;;
18265;SDS011;9259;48.194;16.322;2023-12-20T12:23:11;3.63;;;1.03;;
18265;SDS011;9259;48.194;16.322;2023-12-20T12:25:39;2.10;;;1.10;;
18265;SDS011;9259;48.194;16.322;2023-12-20T12:28:07;1.20;;;0.80;;
18265;SDS011;9259;48.194;16.322;2023-12-20T12:30:35;1.57;;;1.00;;
18265;SDS011;9259;48.194;16.322;2023-12-20T12:33:05;1.47;;;0.80;;
18265;SDS011;9259;48.194;16.322;2023-12-20T12:35:34;1.57;;;0.90;;
18265;SDS011;9259;48.194;16.322;2023-12-20T12:38:01;2.30;;;0.90;;
18265;SDS011;9259;48.194;16.322;2023-12-20T12:40:30;2.23;;;1.23;;
18265;SDS011;9259;48.194;16.322;2023-12-20T12:43:03;2.20;;;1.23;;
18265;SDS011;9259;48.194;16.322;2023-12-20T12:45:32;3.87;;;1.00;;
18265;SDS011;9259;48.194;16.322;2023-12-20T12:48:00;1.53;;;1.20;;
18265;SDS011;9259;48.194;16.322;2023-12-20T12:50:30;1.30;;;0.87;;
18265;SDS011;9259;48.194;16.322;2023-12-20T12:52:58;1.80;;;0.97;;
18265;SDS011;9259;48.194;16.322;2023-12-20T12:55:25;1.83;;;1.03;;
18265;SDS011;9259;48.194;16.322;2023-12-20T13:12:09;4.70;;;1.30;;
18265;SDS011;9259;48.194;16.322;2023-12-20T13:14:37;1.90;;;1.13;;
18265;SDS011;9259;48.194;16.322;2023-12-20T13:17:05;1.60;;;1.03;;
18265;SDS011;9259;48.194;16.322;2023-12-20T13:19:33;5.60;;;1.10;;
18265;SDS011;9259;48.194;16.322;2023-12-20T13:22:01;1.50;;;0.80;;
18265;SDS011;9259;48.194;16.322;2023-12-20T13:24:29;1.73;;;1.13;;
18265;SDS011;9259;48.194;16.322;2023-12-20T13:26:58;4.17;;;1.10;;
18265;SDS011;9259;48.194;16.322;2023-12-20T13:29:27;1.30;;;0.90;;
18265;SDS011;9259;48.194;16.322;2023-12-20T13:31:55;1.47;;;0.80;;
18265;SDS011;9259;48.194;16.322;2023-12-20T13:34:23;2.50;;;1.40;;
18265;SDS011;9259;48.194;16.322;2023-12-20T13:36:51;1.47;;;1.13;;
18265;SDS011;9259;48.194;16.322;2023-12-20T13:39:19;2.50;;;1.00;;
18265;SDS011;9259;48.194;16.322;2023-12-20T13:41:47;1.90;;;1.20;;
18265;SDS011;9259;48.194;16.322;2023-12-20T13:44:15;2.50;;;1.60;;
18265;SDS011;9259;48.194;16.322;2023-12-20T13:46:44;2.33;;;1.30;;
18265;SDS011;9259;48.194;16.322;2023-12-20T13:49:12;2.20;;;1.10;;
18265;SDS011;9259;48.194;16.322;2023-12-20T13:51:40;3.77;;;1.20;;
18265;SDS011;9259;48.194;16.322;2023-12-20T13:54:08;2.77;;;1.30;;
18265;SDS011;9259;48.194;16.322;2023-12-20T13:56:36;1.47;;;0.97;;
18265;SDS011;9259;48.194;16.322;2023-12-20T13:59:04;1.47;;;0.83;;
18265;SDS011;9259;48.194;16.322;2023-12-20T14:01:32;3.67;;;1.30;;
18265;SDS011;9259;48.194;16.322;2023-12-20T14:04:02;2.83;;;1.23;;
18265;SDS011;9259;48.194;16.322;2023-12-20T14:06:30;2.27;;;1.30;;
18265;SDS011;9259;48.194;16.322;2023-12-20T14:08:58;3.43;;;1.37;;
18265;SDS011;9259;48.194;16.322;2023-12-20T14:11:26;1.77;;;1.00;;
18265;SDS011;9259;48.194;16.322;2023-12-20T14:13:54;1.87;;;0.90;;
18265;SDS011;9259;48.194;16.322;2023-12-20T14:16:23;3.27;;;1.20;;
18265;SDS011;9259;48.194;16.322;2023-12-20T14:18:51;2.07;;;1.17;;
18265;SDS011;9259;48.194;16.322;2023-12-20T14:21:24;2.50;;;1.47;;
18265;SDS011;9259;48.194;16.322;2023-12-20T14:23:52;1.97;;;1.20;;
18265;SDS011;9259;48.194;16.322;2023-12-20T14:26:20;3.40;;;1.50;;
18265;SDS011;9259;48.194;16.322;2023-12-20T14:28:48;3.20;;;1.60;;
18265;SDS011;9259;48.194;16.322;2023-12-20T14:31:15;2.17;;;0.90;;
18265;SDS011;9259;48.194;16.322;2023-12-20T14:33:43;4.93;;;1.10;;
18265;SDS011;9259;48.194;16.322;2023-12-20T14:36:12;2.37;;;0.90;;
18265;SDS011;9259;48.194;16.322;2023-12-20T14:38:41;3.63;;;1.10;;
18265;SDS011;9259;48.194;16.322;2023-12-20T14:41:09;2.63;;;1.00;;
18265;SDS011;9259;48.194;16.322;2023-12-20T14:43:36;1.73;;;1.07;;
18265;SDS011;9259;48.194;16.322;2023-12-20T14:46:04;1.40;;;0.87;;
18265;SDS011;9259;48.194;16.322;2023-12-20T14:48:32;1.60;;;0.90;;
18265;SDS011;9259;48.194;16.322;2023-12-20T14:51:00;1.57;;;0.90;;
18265;SDS011;9259;48.194;16.322;2023-12-20T14:53:28;2.73;;;1.37;;
18265;SDS011;9259;48.194;16.322;2023-12-20T14:55:57;1.77;;;1.00;;
18265;SDS011;9259;48.194;16.322;2023-12-20T14:58:25;2.53;;;1.00;;
18265;SDS011;9259;48.194;16.322;2023-12-20T15:00:55;1.10;;;0.70;;
18265;SDS011;9259;48.194;16.322;2023-12-20T15:03:23;1.63;;;0.97;;
18265;SDS011;9259;48.194;16.322;2023-12-20T15:05:51;2.50;;;1.20;;
18265;SDS011;9259;48.194;16.322;2023-12-20T15:08:18;2.27;;;1.30;;
18265;SDS011;9259;48.194;16.322;2023-12-20T15:10:47;4.33;;;1.20;;